createdAt,value
2023-08-11T00:00:22.901Z,12.05
2023-08-11T00:02:53.357Z,12.01
2023-08-11T00:05:20.724Z,11.96
2023-08-11T00:07:52.194Z,11.91
2023-08-11T00:10:20.904Z,11.88
2023-08-11T00:12:48.639Z,11.86
2023-08-11T00:15:15.290Z,11.82
2023-08-11T00:17:42.191Z,11.78
2023-08-11T00:20:10.007Z,11.73
2023-08-11T00:22:39.151Z,11.67
2023-08-11T00:25:06.877Z,11.62
2023-08-11T00:27:33.555Z,11.57
2023-08-11T00:30:00.344Z,11.50
2023-08-11T00:32:27.057Z,11.41
2023-08-11T00:34:53.753Z,11.35
2023-08-11T00:37:20.351Z,11.32
2023-08-11T00:39:47.094Z,11.30
2023-08-11T00:42:14.108Z,11.28
2023-08-11T00:44:40.955Z,11.26
2023-08-11T00:47:08.737Z,11.21
2023-08-11T00:49:36.054Z,11.15
2023-08-11T00:52:04.552Z,11.09
2023-08-11T00:54:31.578Z,11.02
2023-08-11T00:56:58.391Z,10.96
2023-08-11T00:59:26.662Z,10.92
2023-08-11T01:01:53.401Z,10.88
2023-08-11T01:04:21.856Z,10.86
2023-08-11T01:07:17.374Z,10.84
2023-08-11T01:09:54.723Z,10.83
2023-08-11T01:12:32.344Z,10.82
2023-08-11T01:15:08.203Z,10.80
2023-08-11T01:17:36.566Z,10.79
2023-08-11T01:20:09.701Z,10.77
2023-08-11T01:22:38.061Z,10.74
2023-08-11T01:25:06.998Z,10.71
2023-08-11T01:27:37.635Z,10.67
2023-08-11T01:30:07.321Z,10.63
2023-08-11T01:32:33.981Z,10.60
2023-08-11T01:35:00.808Z,10.57
2023-08-11T01:37:27.746Z,10.55
2023-08-11T01:39:54.524Z,10.53
2023-08-11T01:42:21.769Z,10.51
2023-08-11T01:44:49.516Z,10.49
2023-08-11T01:47:18.154Z,10.46
2023-08-11T01:49:45.683Z,10.44
2023-08-11T01:52:13.286Z,10.42
2023-08-11T01:54:43.684Z,10.39
2023-08-11T01:57:10.901Z,10.36
2023-08-11T01:59:37.519Z,10.32
2023-08-11T02:02:04.315Z,10.25
2023-08-11T02:04:30.975Z,10.18
2023-08-11T02:06:57.582Z,10.12
2023-08-11T02:09:24.192Z,10.09
2023-08-11T02:11:50.741Z,10.07
2023-08-11T02:14:17.387Z,10.04
2023-08-11T02:16:57.096Z,10.03
2023-08-11T02:19:23.671Z,10.02
2023-08-11T02:21:51.634Z,10.01
2023-08-11T02:24:18.263Z,9.99
2023-08-11T02:26:44.947Z,9.99
2023-08-11T02:29:11.576Z,9.97
2023-08-11T02:31:38.216Z,9.94
2023-08-11T02:34:04.894Z,9.92
2023-08-11T02:36:31.582Z,9.89
2023-08-11T02:38:58.241Z,9.86
2023-08-11T02:41:25.097Z,9.84
2023-08-11T02:43:51.728Z,9.83
2023-08-11T02:46:18.349Z,9.80
2023-08-11T02:48:44.972Z,9.76
2023-08-11T02:51:11.518Z,9.75
2023-08-11T02:53:38.114Z,9.75
2023-08-11T02:56:07.949Z,9.74
2023-08-11T02:58:34.832Z,9.72
2023-08-11T03:01:02.019Z,9.69
2023-08-11T03:03:29.964Z,9.66
2023-08-11T03:05:59.223Z,9.64
2023-08-11T03:08:26.226Z,9.63
2023-08-11T03:10:57.228Z,9.60
2023-08-11T03:13:30.269Z,9.58
2023-08-11T03:15:57.565Z,9.58
2023-08-11T03:18:27.671Z,9.57
2023-08-11T03:21:00.485Z,9.55
2023-08-11T03:23:33.324Z,9.56
2023-08-11T03:25:59.921Z,9.56
2023-08-11T03:28:28.272Z,9.52
2023-08-11T03:30:55.956Z,9.46
2023-08-11T03:33:22.612Z,9.44
2023-08-11T03:35:53.734Z,9.41
2023-08-11T03:38:20.429Z,9.42
2023-08-11T03:40:48.226Z,9.43
2023-08-11T03:43:14.955Z,9.44
2023-08-11T03:45:41.944Z,9.45
2023-08-11T03:48:11.777Z,9.47
2023-08-11T03:50:38.377Z,9.50
2023-08-11T03:53:04.979Z,9.54
2023-08-11T03:55:31.790Z,9.57
2023-08-11T03:57:58.483Z,9.61
2023-08-11T04:00:26.260Z,9.65
2023-08-11T04:03:04.828Z,9.71
2023-08-11T04:05:31.680Z,9.77
2023-08-11T04:07:58.341Z,9.83
2023-08-11T04:10:25.669Z,9.90
2023-08-11T04:12:52.567Z,9.96
2023-08-11T04:15:19.671Z,10.04
2023-08-11T04:17:46.283Z,10.11
2023-08-11T04:20:14.593Z,10.18
2023-08-11T04:22:42.282Z,10.27
2023-08-11T04:25:11.703Z,10.35
2023-08-11T04:27:41.664Z,10.44
2023-08-11T04:30:11.263Z,10.53
2023-08-11T04:32:38.990Z,10.62
2023-08-11T04:35:09.500Z,10.72
2023-08-11T04:37:37.757Z,10.81
2023-08-11T04:40:09.784Z,10.89
2023-08-11T04:42:36.478Z,10.97
2023-08-11T04:45:03.569Z,11.03
2023-08-11T04:47:31.260Z,11.11
2023-08-11T04:49:58.754Z,11.21
2023-08-11T04:52:25.408Z,11.32
2023-08-11T04:54:52.157Z,11.41
2023-08-11T04:57:18.783Z,11.48
2023-08-11T04:59:46.901Z,11.57
2023-08-11T05:02:14.323Z,11.66
2023-08-11T05:04:41.320Z,11.71
2023-08-11T05:07:08.378Z,11.77
2023-08-11T05:09:38.781Z,11.86
2023-08-11T05:12:06.160Z,11.96
2023-08-11T05:14:33.133Z,12.08
2023-08-11T05:17:02.216Z,12.22
2023-08-11T05:19:30.597Z,12.38
2023-08-11T05:21:57.213Z,12.52
2023-08-11T05:24:23.814Z,12.64
2023-08-11T05:26:50.441Z,12.75
2023-08-11T05:29:17.029Z,12.85
2023-08-11T05:31:44.021Z,12.96
2023-08-11T05:34:11.017Z,13.08
2023-08-11T05:36:38.160Z,13.19
2023-08-11T05:39:05.055Z,13.32
2023-08-11T05:41:31.826Z,13.43
2023-08-11T05:43:58.488Z,13.55
2023-08-11T05:46:25.220Z,13.68
2023-08-11T05:48:52.418Z,13.80
2023-08-11T05:51:19.181Z,13.93
2023-08-11T05:53:45.965Z,14.05
2023-08-11T05:56:12.580Z,14.16
2023-08-11T05:58:39.252Z,14.28
2023-08-11T06:01:05.979Z,14.44
2023-08-11T06:03:32.760Z,14.58
2023-08-11T06:06:02.056Z,14.70
2023-08-11T06:08:29.564Z,14.83
2023-08-11T06:10:56.720Z,14.95
2023-08-11T06:13:26.391Z,15.07
2023-08-11T06:15:53.140Z,15.18
2023-08-11T06:18:19.851Z,15.30
2023-08-11T06:20:48.517Z,15.42
2023-08-11T06:23:15.245Z,15.53
2023-08-11T06:25:43.057Z,15.67
2023-08-11T06:28:10.132Z,15.81
2023-08-11T06:30:36.854Z,15.96
2023-08-11T06:33:03.885Z,16.07
2023-08-11T06:35:31.424Z,16.19
2023-08-11T06:37:58.452Z,16.29
2023-08-11T06:40:25.181Z,16.41
2023-08-11T06:42:51.853Z,16.60
2023-08-11T06:45:19.688Z,16.89
2023-08-11T06:47:46.463Z,17.42
2023-08-11T06:50:14.425Z,18.21
2023-08-11T06:52:41.144Z,19.08
2023-08-11T06:55:08.087Z,20.01
2023-08-11T06:57:34.833Z,20.96
2023-08-11T07:00:01.622Z,21.88
2023-08-11T07:02:28.393Z,22.68
2023-08-11T07:04:55.045Z,23.44
2023-08-11T07:07:21.734Z,24.11
2023-08-11T07:09:48.384Z,24.69
2023-08-11T07:12:14.979Z,25.35
2023-08-11T07:14:43.742Z,26.02
2023-08-11T07:17:12.039Z,26.79
2023-08-11T07:19:39.082Z,27.43
2023-08-11T07:22:05.764Z,27.86
2023-08-11T07:24:32.494Z,28.39
2023-08-11T07:26:59.103Z,28.90
2023-08-11T07:29:25.744Z,29.45
2023-08-11T07:31:52.371Z,30.04
2023-08-11T07:34:19.363Z,30.68
2023-08-11T07:36:46.001Z,31.11
2023-08-11T07:39:22.890Z,31.47
2023-08-11T07:41:51.654Z,31.98
2023-08-11T07:44:18.483Z,32.30
2023-08-11T07:46:45.355Z,32.53
2023-08-11T07:49:12.187Z,32.85
2023-08-11T07:51:41.049Z,33.13
2023-08-11T07:54:07.932Z,33.35
2023-08-11T07:56:35.134Z,33.50
2023-08-11T07:59:02.027Z,33.86
2023-08-11T08:01:29.162Z,34.59
2023-08-11T08:03:57.546Z,35.25
2023-08-11T08:06:25.103Z,35.58
2023-08-11T08:08:51.768Z,35.88
2023-08-11T08:11:18.549Z,36.03
2023-08-11T08:13:45.316Z,36.17
2023-08-11T08:16:12.058Z,36.32
2023-08-11T08:18:38.721Z,36.53
2023-08-11T08:21:05.381Z,36.91
2023-08-11T08:23:31.984Z,37.04
2023-08-11T08:25:59.192Z,37.19
2023-08-11T08:28:26.120Z,37.38
2023-08-11T08:30:53.252Z,37.45
2023-08-11T08:33:19.900Z,37.09
2023-08-11T08:35:47.664Z,37.33
2023-08-11T08:38:14.274Z,37.93
2023-08-11T08:40:41.073Z,38.60
2023-08-11T08:43:09.937Z,39.21
2023-08-11T08:45:38.647Z,39.62
2023-08-11T08:48:14.411Z,39.60
2023-08-11T08:50:41.025Z,39.39
2023-08-11T08:53:07.826Z,39.23
2023-08-11T08:55:34.684Z,39.44
2023-08-11T08:58:03.159Z,39.91
2023-08-11T09:00:29.891Z,40.21
2023-08-11T09:02:58.575Z,40.39
2023-08-11T09:05:26.565Z,40.61
2023-08-11T09:07:53.927Z,40.88
2023-08-11T09:10:20.634Z,41.02
2023-08-11T09:12:49.518Z,40.91
2023-08-11T09:15:16.555Z,41.02
2023-08-11T09:17:43.566Z,40.76
2023-08-11T09:20:13.977Z,40.53
2023-08-11T09:22:41.619Z,40.62
2023-08-11T09:25:09.031Z,40.52
2023-08-11T09:27:35.822Z,40.51
2023-08-11T09:30:02.512Z,40.03
2023-08-11T09:32:33.353Z,40.41
2023-08-11T09:35:14.014Z,41.30
2023-08-11T09:37:44.945Z,41.75
2023-08-11T09:40:12.717Z,42.31
2023-08-11T09:42:39.735Z,42.73
2023-08-11T09:45:07.344Z,42.54
2023-08-11T09:47:36.834Z,42.52
2023-08-11T09:50:04.744Z,42.33
2023-08-11T09:52:36.484Z,42.29
2023-08-11T09:55:07.507Z,42.68
2023-08-11T09:57:38.487Z,43.13
2023-08-11T10:00:07.304Z,43.71
2023-08-11T10:02:37.177Z,44.29
2023-08-11T10:05:08.015Z,44.69
2023-08-11T10:07:40.348Z,44.96
2023-08-11T10:10:19.116Z,45.30
2023-08-11T10:12:53.801Z,45.88
2023-08-11T10:15:23.654Z,45.99
2023-08-11T10:17:51.134Z,45.45
2023-08-11T10:20:18.149Z,44.68
2023-08-11T10:22:44.936Z,44.05
2023-08-11T10:25:12.457Z,43.53
2023-08-11T10:27:40.627Z,43.13
2023-08-11T10:30:09.304Z,43.05
2023-08-11T10:32:36.485Z,42.84
2023-08-11T10:35:07.687Z,42.64
2023-08-11T10:37:34.983Z,42.09
2023-08-11T10:40:06.440Z,40.90
2023-08-11T10:42:33.547Z,39.48
2023-08-11T10:45:11.550Z,37.97
2023-08-11T10:47:40.148Z,36.80
2023-08-11T10:50:10.400Z,35.68
2023-08-11T10:52:37.204Z,35.58
2023-08-11T10:55:04.300Z,36.31
2023-08-11T10:57:35.471Z,37.10
2023-08-11T11:00:02.133Z,36.85
2023-08-11T11:02:30.866Z,35.99
2023-08-11T11:04:58.522Z,36.14
2023-08-11T11:07:26.151Z,36.96
2023-08-11T11:09:53.353Z,37.83
2023-08-11T11:12:20.921Z,38.06
2023-08-11T11:14:47.700Z,38.48
2023-08-11T11:17:14.393Z,38.66
2023-08-11T11:19:41.516Z,39.26
2023-08-11T11:22:09.393Z,39.29
2023-08-11T11:24:38.546Z,38.85
2023-08-11T11:27:05.923Z,37.89
2023-08-11T11:29:33.224Z,36.73
2023-08-11T11:32:07.697Z,35.67
2023-08-11T11:34:38.633Z,35.22
2023-08-11T11:37:05.482Z,34.67
2023-08-11T11:39:33.246Z,33.93
2023-08-11T11:42:07.922Z,33.04
2023-08-11T11:44:35.830Z,32.34
2023-08-11T11:47:06.281Z,31.84
2023-08-11T11:49:33.088Z,31.39
2023-08-11T11:52:01.692Z,31.28
2023-08-11T11:54:30.174Z,31.57
2023-08-11T11:57:04.901Z,32.15
2023-08-11T11:59:33.959Z,32.91
2023-08-11T12:02:04.877Z,33.18
2023-08-11T12:04:32.319Z,32.72
2023-08-11T12:06:59.171Z,32.20
2023-08-11T12:09:25.918Z,31.97
2023-08-11T12:11:55.303Z,31.86
2023-08-11T12:14:21.923Z,31.96
2023-08-11T12:16:48.648Z,32.46
2023-08-11T12:19:15.952Z,32.84
2023-08-11T12:21:43.959Z,33.14
2023-08-11T12:24:15.618Z,33.48
2023-08-11T12:26:42.428Z,33.37
2023-08-11T12:29:09.193Z,32.95
2023-08-11T12:31:35.852Z,32.75
2023-08-11T12:34:02.593Z,32.58
2023-08-11T12:36:29.622Z,32.70
2023-08-11T12:38:56.772Z,32.86
2023-08-11T12:41:24.654Z,32.99
2023-08-11T12:43:51.339Z,33.18
2023-08-11T12:46:18.019Z,33.00
2023-08-11T12:48:44.927Z,32.62
2023-08-11T12:51:11.798Z,32.11
2023-08-11T12:53:38.465Z,31.45
2023-08-11T12:56:05.590Z,30.78
2023-08-11T12:58:32.620Z,30.33
2023-08-11T13:00:59.278Z,30.05
2023-08-11T13:03:27.402Z,29.87
2023-08-11T13:05:54.166Z,29.70
2023-08-11T13:08:20.884Z,29.83
2023-08-11T13:10:47.604Z,30.06
2023-08-11T13:13:14.362Z,30.53
2023-08-11T13:15:41.401Z,30.79
2023-08-11T13:18:08.120Z,30.57
2023-08-11T13:20:34.861Z,30.11
2023-08-11T13:23:01.621Z,29.53
2023-08-11T13:25:28.387Z,29.26
2023-08-11T13:27:55.194Z,29.36
2023-08-11T13:30:23.061Z,29.42
2023-08-11T13:32:49.812Z,29.69
2023-08-11T13:35:16.607Z,29.96
2023-08-11T13:37:43.434Z,30.02
2023-08-11T13:40:10.891Z,30.08
2023-08-11T13:42:38.573Z,30.04
2023-08-11T13:45:08.111Z,30.16
2023-08-11T13:47:35.400Z,30.25
2023-08-11T13:50:02.426Z,30.23
2023-08-11T13:52:29.161Z,30.33
2023-08-11T13:55:04.158Z,30.43
2023-08-11T13:57:31.077Z,30.49
2023-08-11T13:59:59.605Z,30.34
2023-08-11T14:02:28.044Z,29.92
2023-08-11T14:04:55.688Z,29.41
2023-08-11T14:07:31.750Z,28.86
2023-08-11T14:10:00.767Z,28.27
2023-08-11T14:12:27.670Z,27.75
2023-08-11T14:14:54.640Z,27.33
2023-08-11T14:17:21.352Z,27.16
2023-08-11T14:19:48.095Z,27.10
2023-08-11T14:22:15.094Z,27.01
2023-08-11T14:24:42.141Z,26.94
2023-08-11T14:27:08.847Z,26.84
2023-08-11T14:29:35.699Z,26.64
2023-08-11T14:32:18.285Z,26.47
2023-08-11T14:34:49.435Z,26.30
2023-08-11T14:37:17.588Z,26.21
2023-08-11T14:39:46.022Z,26.05
2023-08-11T14:42:15.140Z,25.92
2023-08-11T14:44:42.889Z,25.83
2023-08-11T14:47:14.503Z,25.71
2023-08-11T14:49:42.671Z,25.65
2023-08-11T14:52:09.985Z,25.61
2023-08-11T14:54:37.399Z,25.62
2023-08-11T14:57:04.754Z,25.66
2023-08-11T14:59:32.735Z,25.72
2023-08-11T15:01:59.626Z,25.78
2023-08-11T15:04:27.945Z,25.77
2023-08-11T15:06:54.908Z,25.73
2023-08-11T15:09:21.723Z,25.68
2023-08-11T15:11:49.388Z,25.63
2023-08-11T15:14:16.990Z,25.64
2023-08-11T15:16:43.766Z,25.68
2023-08-11T15:19:10.728Z,25.78
2023-08-11T15:21:37.725Z,25.78
2023-08-11T15:24:04.799Z,25.76
2023-08-11T15:26:31.477Z,25.70
2023-08-11T15:29:00.749Z,25.71
2023-08-11T15:31:27.938Z,25.75
2023-08-11T15:33:54.769Z,25.82
2023-08-11T15:36:21.754Z,25.80
2023-08-11T15:38:50.447Z,25.73
2023-08-11T15:41:17.772Z,25.64
2023-08-11T15:43:44.441Z,25.55
2023-08-11T15:46:11.602Z,25.48
2023-08-11T15:48:38.317Z,25.38
2023-08-11T15:51:05.261Z,25.25
2023-08-11T15:53:31.954Z,25.13
2023-08-11T15:55:58.645Z,25.06
2023-08-11T15:58:25.293Z,24.98
2023-08-11T16:00:52.371Z,24.88
2023-08-11T16:03:21.398Z,24.76
2023-08-11T16:05:49.163Z,24.68
2023-08-11T16:08:15.998Z,24.50
2023-08-11T16:10:43.461Z,24.31
2023-08-11T16:13:13.082Z,24.23
2023-08-11T16:15:39.933Z,24.19
2023-08-11T16:18:10.703Z,24.16
2023-08-11T16:20:40.109Z,24.13
2023-08-11T16:23:08.009Z,24.10
2023-08-11T16:25:34.731Z,24.08
2023-08-11T16:28:01.440Z,24.06
2023-08-11T16:30:28.438Z,24.05
2023-08-11T16:32:58.443Z,24.03
2023-08-11T16:35:25.372Z,24.01
2023-08-11T16:37:52.169Z,23.99
2023-08-11T16:40:18.832Z,23.98
2023-08-11T16:42:45.493Z,23.98
2023-08-11T16:45:12.210Z,23.99
2023-08-11T16:47:39.031Z,24.00
2023-08-11T16:50:06.353Z,24.01
2023-08-11T16:52:33.096Z,24.01
2023-08-11T16:54:59.948Z,23.99
2023-08-11T16:57:26.554Z,23.94
2023-08-11T16:59:53.232Z,23.86
2023-08-11T17:02:20.122Z,23.78
2023-08-11T17:04:47.227Z,23.70
2023-08-11T17:07:13.901Z,23.64
2023-08-11T17:09:40.594Z,23.58
2023-08-11T17:12:08.144Z,23.52
2023-08-11T17:14:35.277Z,23.46
2023-08-11T17:17:01.956Z,23.42
2023-08-11T17:19:28.797Z,23.37
2023-08-11T17:21:58.358Z,23.31
2023-08-11T17:24:25.039Z,23.24
2023-08-11T17:26:52.497Z,23.18
2023-08-11T17:29:19.143Z,23.13
2023-08-11T17:31:45.902Z,23.08
2023-08-11T17:34:12.554Z,23.03
2023-08-11T17:36:39.205Z,22.98
2023-08-11T17:39:07.421Z,22.93
2023-08-11T17:41:34.068Z,22.87
2023-08-11T17:44:00.673Z,22.81
2023-08-11T17:46:29.166Z,22.74
2023-08-11T17:48:56.478Z,22.67
2023-08-11T17:51:24.008Z,22.59
2023-08-11T17:54:03.857Z,22.46
2023-08-11T17:56:39.346Z,22.33
2023-08-11T17:59:06.405Z,22.24
2023-08-11T18:01:33.388Z,22.16
2023-08-11T18:04:07.540Z,22.04
2023-08-11T18:06:36.069Z,21.88
2023-08-11T18:09:04.766Z,21.69
2023-08-11T18:11:31.680Z,21.54
2023-08-11T18:13:58.391Z,21.39
2023-08-11T18:16:27.933Z,21.22
2023-08-11T18:18:54.775Z,21.05
2023-08-11T18:21:21.755Z,20.85
2023-08-11T18:23:48.668Z,20.70
2023-08-11T18:26:17.526Z,20.55
2023-08-11T18:28:44.834Z,20.42
2023-08-11T18:31:11.692Z,20.24
2023-08-11T18:33:38.607Z,20.05
2023-08-11T18:36:05.641Z,19.86
2023-08-11T18:38:32.285Z,19.63
2023-08-11T18:40:59.164Z,19.39
2023-08-11T18:43:25.907Z,19.17
2023-08-11T18:45:52.583Z,18.98
2023-08-11T18:48:19.715Z,18.79
2023-08-11T18:50:46.683Z,18.61
2023-08-11T18:53:14.086Z,18.44
2023-08-11T18:55:40.776Z,18.30
2023-08-11T18:58:08.062Z,18.15
2023-08-11T19:00:34.756Z,18.02
2023-08-11T19:03:01.541Z,17.91
2023-08-11T19:05:28.655Z,17.77
2023-08-11T19:07:56.035Z,17.65
2023-08-11T19:10:28.705Z,17.50
2023-08-11T19:12:55.481Z,17.35
2023-08-11T19:15:22.179Z,17.22
2023-08-11T19:17:48.825Z,17.12
2023-08-11T19:20:15.552Z,17.04
2023-08-11T19:22:43.186Z,16.91
2023-08-11T19:25:11.975Z,16.77
2023-08-11T19:27:39.442Z,16.65
2023-08-11T19:30:07.566Z,16.53
2023-08-11T19:32:35.815Z,16.41
2023-08-11T19:35:04.161Z,16.33
2023-08-11T19:37:30.888Z,16.25
2023-08-11T19:39:57.622Z,16.17
2023-08-11T19:42:24.421Z,16.09
2023-08-11T19:44:51.205Z,16.00
2023-08-11T19:47:17.839Z,15.92
2023-08-11T19:49:44.510Z,15.84
2023-08-11T19:52:12.044Z,15.77
2023-08-11T19:54:39.084Z,15.68
2023-08-11T19:57:05.955Z,15.58
2023-08-11T19:59:32.646Z,15.47
2023-08-11T20:01:59.371Z,15.39
2023-08-11T20:04:28.415Z,15.32
2023-08-11T20:06:55.333Z,15.25
2023-08-11T20:09:23.480Z,15.15
2023-08-11T20:11:51.503Z,15.08
2023-08-11T20:14:19.817Z,15.02
2023-08-11T20:16:51.461Z,14.93
2023-08-11T20:19:19.479Z,14.82
2023-08-11T20:21:46.456Z,14.72
2023-08-11T20:24:13.203Z,14.64
2023-08-11T20:26:39.844Z,14.54
2023-08-11T20:29:06.909Z,14.47
2023-08-11T20:31:34.207Z,14.40
2023-08-11T20:34:01.458Z,14.32
2023-08-11T20:36:28.613Z,14.27
2023-08-11T20:38:55.222Z,14.20
2023-08-11T20:41:21.863Z,14.14
2023-08-11T20:43:49.646Z,14.10
2023-08-11T20:46:16.882Z,14.04
2023-08-11T20:48:43.622Z,13.97
2023-08-11T20:51:12.873Z,13.91
2023-08-11T20:53:40.046Z,13.85
2023-08-11T20:56:06.710Z,13.79
2023-08-11T20:58:33.550Z,13.71
2023-08-11T21:01:00.521Z,13.66
2023-08-11T21:03:27.435Z,13.60
2023-08-11T21:05:54.928Z,13.55
2023-08-11T21:08:22.315Z,13.45
2023-08-11T21:10:49.118Z,13.38
2023-08-11T21:13:16.000Z,13.33
2023-08-11T21:15:42.656Z,13.25
2023-08-11T21:18:10.799Z,13.19
2023-08-11T21:20:38.341Z,13.14
2023-08-11T21:23:06.287Z,13.09
2023-08-11T21:25:33.247Z,13.03
2023-08-11T21:28:00.319Z,12.99
2023-08-11T21:30:27.007Z,12.95
2023-08-11T21:32:53.779Z,12.90
2023-08-11T21:35:21.335Z,12.87
2023-08-11T21:37:48.951Z,12.81
2023-08-11T21:40:15.712Z,12.77
2023-08-11T21:42:42.766Z,12.71
2023-08-11T21:45:10.869Z,12.65
2023-08-11T21:47:37.486Z,12.60
2023-08-11T21:50:04.477Z,12.56
2023-08-11T21:52:31.111Z,12.51
2023-08-11T21:54:57.738Z,12.47
2023-08-11T21:57:24.401Z,12.42
2023-08-11T21:59:51.100Z,12.36
2023-08-11T22:02:17.959Z,12.33
2023-08-11T22:04:46.448Z,12.27
2023-08-11T22:07:14.058Z,12.22
2023-08-11T22:09:40.961Z,12.19
2023-08-11T22:12:07.780Z,12.14
2023-08-11T22:14:35.124Z,12.09
2023-08-11T22:17:01.757Z,12.03
2023-08-11T22:19:30.489Z,11.98
2023-08-11T22:21:57.815Z,11.94
2023-08-11T22:24:38.550Z,11.89
2023-08-11T22:27:08.143Z,11.84
2023-08-11T22:29:34.791Z,11.81
2023-08-11T22:32:02.194Z,11.79
2023-08-11T22:34:28.812Z,11.78
2023-08-11T22:36:56.213Z,11.74
2023-08-11T22:39:22.954Z,11.68
2023-08-11T22:41:49.560Z,11.62
2023-08-11T22:44:16.233Z,11.58
2023-08-11T22:46:43.403Z,11.54
2023-08-11T22:49:10.114Z,11.52
2023-08-11T22:51:36.754Z,11.49
2023-08-11T22:54:03.499Z,11.45
2023-08-11T22:56:30.132Z,11.41
2023-08-11T22:58:56.790Z,11.36
2023-08-11T23:01:23.456Z,11.33
2023-08-11T23:03:50.199Z,11.30
2023-08-11T23:06:16.993Z,11.26
2023-08-11T23:08:43.709Z,11.22
2023-08-11T23:11:10.318Z,11.22
2023-08-11T23:13:36.955Z,11.16
2023-08-11T23:16:04.271Z,11.10
2023-08-11T23:18:31.111Z,11.04
2023-08-11T23:20:57.778Z,11.03
2023-08-11T23:23:24.411Z,11.02
2023-08-11T23:25:51.249Z,11.02
2023-08-11T23:28:18.591Z,11.00
2023-08-11T23:30:45.231Z,10.97
2023-08-11T23:33:13.087Z,10.95
2023-08-11T23:35:40.147Z,10.93
2023-08-11T23:38:08.411Z,10.90
2023-08-11T23:40:35.060Z,10.86
2023-08-11T23:43:02.964Z,10.79
2023-08-11T23:45:30.734Z,10.75
2023-08-11T23:47:57.898Z,10.70
2023-08-11T23:50:24.970Z,10.64
2023-08-11T23:52:51.557Z,10.60
2023-08-11T23:55:18.187Z,10.56
2023-08-11T23:57:44.808Z,10.52
